createdAt,value
2018-11-11T01:29:34.727Z,35.38
2018-11-11T01:29:35.304Z,35.28
2018-11-11T01:29:35.900Z,35.19
2018-11-11T01:29:36.500Z,35.47
2018-11-11T01:29:37.102Z,35.47
2018-11-11T01:29:37.701Z,35.28
2018-11-11T01:29:38.301Z,35.28
2018-11-11T01:29:38.905Z,35.47
2018-11-11T01:30:32.380Z,34.42
2018-11-11T01:30:32.954Z,34.61
2018-11-11T01:30:33.555Z,34.44
2018-11-11T01:30:34.153Z,34.54
2018-11-11T01:30:34.753Z,34.42
2018-11-11T01:30:35.353Z,34.42
2018-11-11T01:30:35.951Z,34.52
2018-11-11T01:30:36.553Z,34.52
2018-11-11T01:31:31.032Z,34.52
2018-11-11T01:31:31.633Z,34.42
2018-11-11T01:31:32.230Z,34.42
2018-11-11T01:31:32.831Z,34.42
2018-11-11T01:31:33.429Z,34.42
2018-11-11T01:31:34.034Z,34.52
2018-11-11T01:31:34.629Z,34.52
2018-11-11T01:31:35.229Z,34.52
2018-11-11T01:32:28.685Z,33.85
2018-11-11T01:32:29.284Z,33.85
2018-11-11T01:32:29.882Z,33.95
2018-11-11T01:32:30.482Z,34.05
2018-11-11T01:32:31.082Z,33.95
2018-11-11T01:32:31.684Z,33.95
2018-11-11T01:32:32.282Z,33.85
2018-11-11T01:32:32.883Z,33.95
2018-11-11T01:33:27.360Z,33.57
2018-11-11T01:33:27.957Z,33.37
2018-11-11T01:33:28.558Z,33.47
2018-11-11T01:33:29.159Z,33.57
2018-11-11T01:33:29.765Z,33.00
2018-11-11T01:33:30.357Z,33.47
2018-11-11T01:33:30.957Z,33.49
2018-11-11T01:33:31.556Z,33.37
2018-11-11T01:34:25.013Z,32.04
2018-11-11T01:34:25.613Z,32.06
2018-11-11T01:34:26.211Z,32.06
2018-11-11T01:34:26.809Z,32.15
2018-11-11T01:34:27.411Z,31.96
2018-11-11T01:34:28.012Z,32.15
2018-11-11T01:34:28.611Z,32.24
2018-11-11T01:34:29.210Z,32.15
2018-11-11T01:35:23.721Z,31.48
2018-11-11T01:35:24.289Z,31.47
2018-11-11T01:35:24.889Z,31.47
2018-11-11T01:35:25.485Z,31.39
2018-11-11T01:35:26.087Z,31.48
2018-11-11T01:35:26.686Z,31.39
2018-11-11T01:35:27.287Z,31.58
2018-11-11T01:35:27.886Z,31.58
2018-11-11T01:36:22.368Z,31.01
2018-11-11T01:36:22.961Z,30.99
2018-11-11T01:36:23.564Z,30.99
2018-11-11T01:36:24.161Z,30.91
2018-11-11T01:36:24.762Z,30.91
2018-11-11T01:36:25.361Z,31.01
2018-11-11T01:36:25.960Z,31.18
2018-11-11T01:36:26.561Z,31.20
2018-11-11T01:37:20.018Z,30.90
2018-11-11T01:37:20.615Z,30.72
2018-11-11T01:37:21.214Z,30.71
2018-11-11T01:37:21.814Z,30.71
2018-11-11T01:37:22.414Z,30.72
2018-11-11T01:37:23.015Z,30.61
2018-11-11T01:37:23.615Z,30.72
2018-11-11T01:37:24.215Z,30.72
2018-11-11T01:38:17.669Z,30.43
2018-11-11T01:38:18.267Z,30.34
2018-11-11T01:38:18.869Z,30.34
2018-11-11T01:38:19.471Z,30.34
2018-11-11T01:38:20.066Z,30.43
2018-11-11T01:38:20.669Z,30.43
2018-11-11T01:38:21.266Z,30.43
2018-11-11T01:38:21.871Z,30.34
2018-11-11T01:39:16.348Z,30.53
2018-11-11T01:39:16.941Z,30.15
2018-11-11T01:39:17.542Z,30.43
2018-11-11T01:39:18.142Z,30.43
2018-11-11T01:39:18.741Z,30.43
2018-11-11T01:39:19.340Z,30.53
2018-11-11T01:39:19.941Z,30.43
2018-11-11T01:39:20.540Z,30.34
2018-11-11T01:40:15.022Z,30.34
2018-11-11T01:40:15.618Z,30.05
2018-11-11T01:40:16.223Z,30.15
2018-11-11T01:40:16.818Z,30.15
2018-11-11T01:40:17.418Z,30.15
2018-11-11T01:40:18.019Z,30.15
2018-11-11T01:40:18.617Z,30.43
2018-11-11T01:40:19.218Z,30.15
2018-11-11T01:41:13.720Z,30.43
2018-11-11T01:41:14.293Z,30.43
2018-11-11T01:41:14.894Z,30.34
2018-11-11T01:41:15.494Z,30.24
2018-11-11T01:41:16.093Z,30.24
2018-11-11T01:41:16.694Z,30.43
2018-11-11T01:41:17.294Z,30.15
2018-11-11T01:41:17.892Z,30.34
2018-11-11T01:42:11.348Z,30.15
2018-11-11T01:42:11.946Z,30.34
2018-11-11T01:42:12.545Z,29.96
2018-11-11T01:42:13.146Z,30.34
2018-11-11T01:42:13.747Z,30.34
2018-11-11T01:42:14.347Z,30.15
2018-11-11T01:42:14.945Z,30.34
2018-11-11T01:42:15.546Z,30.34
2018-11-11T01:43:10.026Z,30.24
2018-11-11T01:43:10.621Z,30.15
2018-11-11T01:43:11.222Z,30.15
2018-11-11T01:43:11.822Z,30.15
2018-11-11T01:43:12.421Z,30.24
2018-11-11T01:43:13.022Z,30.15
2018-11-11T01:43:13.622Z,30.15
2018-11-11T01:43:14.220Z,30.24
2018-11-11T01:44:08.702Z,30.34
2018-11-11T01:44:09.296Z,30.43
2018-11-11T01:44:09.897Z,30.43
2018-11-11T01:44:10.499Z,30.34
2018-11-11T01:44:11.096Z,30.24
2018-11-11T01:44:11.697Z,30.63
2018-11-11T01:44:12.296Z,30.43
2018-11-11T01:44:12.894Z,30.43
2018-11-11T01:45:06.354Z,30.72
2018-11-11T01:45:06.950Z,30.72
2018-11-11T01:45:07.549Z,30.72
2018-11-11T01:45:08.152Z,30.72
2018-11-11T01:45:08.752Z,30.63
2018-11-11T01:45:09.346Z,30.72
2018-11-11T01:45:09.951Z,30.82
2018-11-11T01:45:10.548Z,31.01
2018-11-11T01:46:04.031Z,31.01
2018-11-11T01:46:04.602Z,31.01
2018-11-11T01:46:05.207Z,31.01
2018-11-11T01:46:05.802Z,30.91
2018-11-11T01:46:06.403Z,30.72
2018-11-11T01:46:07.000Z,30.72
2018-11-11T01:46:07.601Z,30.72
2018-11-11T01:46:08.202Z,30.72
2018-11-11T01:47:01.657Z,31.29
2018-11-11T01:47:02.258Z,31.39
2018-11-11T01:47:02.857Z,31.29
2018-11-11T01:47:03.452Z,31.39
2018-11-11T01:47:04.051Z,31.39
2018-11-11T01:47:04.652Z,31.29
2018-11-11T01:47:05.252Z,31.20
2018-11-11T01:47:05.851Z,31.29
2018-11-11T01:48:00.332Z,31.77
2018-11-11T01:48:00.928Z,32.15
2018-11-11T01:48:01.527Z,32.15
2018-11-11T01:48:02.135Z,31.68
2018-11-11T01:48:02.727Z,32.15
2018-11-11T01:48:03.327Z,32.24
2018-11-11T01:48:03.927Z,32.24
2018-11-11T01:48:04.528Z,32.24
2018-11-11T01:48:59.006Z,32.44
2018-11-11T01:48:59.607Z,32.63
2018-11-11T01:49:00.204Z,32.53
2018-11-11T01:49:00.804Z,32.34
2018-11-11T01:49:01.404Z,32.34
2018-11-11T01:49:02.005Z,32.34
2018-11-11T01:49:02.604Z,32.44
2018-11-11T01:49:03.206Z,32.53
2018-11-11T01:49:57.683Z,33.01
2018-11-11T01:49:58.281Z,33.11
2018-11-11T01:49:58.883Z,33.11
2018-11-11T01:49:59.480Z,33.11
2018-11-11T01:50:00.080Z,33.29
2018-11-11T01:50:00.679Z,33.20
2018-11-11T01:50:01.283Z,33.39
2018-11-11T01:50:01.880Z,33.39
2018-11-11T01:50:55.338Z,33.49
2018-11-11T01:50:55.932Z,33.49
2018-11-11T01:50:56.531Z,33.29
2018-11-11T01:50:57.131Z,33.58
2018-11-11T01:50:57.731Z,33.39
2018-11-11T01:50:58.330Z,33.39
2018-11-11T01:50:58.931Z,33.39
2018-11-11T01:50:59.530Z,33.39
2018-11-11T01:51:54.034Z,34.73
2018-11-11T01:51:54.608Z,34.73
2018-11-11T01:51:55.207Z,34.73
2018-11-11T01:51:55.807Z,34.73
2018-11-11T01:51:56.407Z,34.54
2018-11-11T01:51:57.008Z,34.44
2018-11-11T01:51:57.606Z,34.34
2018-11-11T01:51:58.206Z,34.44
2018-11-11T01:52:51.663Z,35.30
2018-11-11T01:52:52.260Z,35.49
2018-11-11T01:52:52.861Z,35.39
2018-11-11T01:52:53.459Z,35.39
2018-11-11T01:52:54.060Z,35.41
2018-11-11T01:52:54.659Z,35.49
2018-11-11T01:52:55.260Z,35.49
2018-11-11T01:52:55.859Z,35.39
2018-11-11T01:53:50.336Z,36.07
2018-11-11T01:53:50.936Z,36.56
2018-11-11T01:53:51.535Z,36.27
2018-11-11T01:53:52.138Z,36.35
2018-11-11T01:53:52.733Z,36.07
2018-11-11T01:53:53.335Z,36.25
2018-11-11T01:53:53.935Z,36.27
2018-11-11T01:53:54.533Z,36.07
2018-11-11T01:54:47.991Z,36.85
2018-11-11T01:54:48.588Z,37.30
2018-11-11T01:54:49.186Z,36.94
2018-11-11T01:54:49.787Z,37.02
2018-11-11T01:54:50.387Z,36.92
2018-11-11T01:54:50.986Z,36.92
2018-11-11T01:54:51.586Z,36.94
2018-11-11T01:54:52.187Z,36.92
2018-11-11T01:55:45.642Z,38.45
2018-11-11T01:55:46.242Z,38.35
2018-11-11T01:55:46.838Z,38.35
2018-11-11T01:55:47.438Z,38.35
2018-11-11T01:55:48.044Z,38.35
2018-11-11T01:55:48.639Z,38.37
2018-11-11T01:55:49.239Z,38.35
2018-11-11T01:55:49.840Z,38.35
2018-11-11T01:56:44.347Z,38.54
2018-11-11T01:56:44.913Z,38.45
2018-11-11T01:56:45.514Z,38.54
2018-11-11T01:56:46.113Z,38.54
2018-11-11T01:56:46.712Z,39.31
2018-11-11T01:56:47.338Z,38.54
2018-11-11T01:56:47.916Z,38.95
2018-11-11T01:56:48.514Z,39.22
2018-11-11T01:57:43.007Z,40.17
2018-11-11T01:57:43.590Z,39.81
2018-11-11T01:57:44.189Z,40.17
2018-11-11T01:57:44.791Z,40.09
2018-11-11T01:57:45.391Z,40.17
2018-11-11T01:57:45.991Z,39.98
2018-11-11T01:57:46.589Z,39.88
2018-11-11T01:57:47.190Z,40.00
2018-11-11T01:58:40.645Z,40.83
2018-11-11T01:58:41.243Z,41.03
2018-11-11T01:58:41.842Z,40.83
2018-11-11T01:58:42.441Z,40.86
2018-11-11T01:58:43.042Z,40.86
2018-11-11T01:58:43.641Z,41.41
2018-11-11T01:58:44.242Z,41.33
2018-11-11T01:58:44.841Z,41.14
2018-11-11T01:59:39.323Z,42.10
2018-11-11T01:59:39.917Z,41.91
2018-11-11T01:59:40.516Z,42.00
2018-11-11T01:59:41.116Z,42.08
2018-11-11T01:59:41.716Z,42.00
2018-11-11T01:59:42.316Z,42.19
2018-11-11T01:59:42.916Z,42.27
2018-11-11T01:59:43.518Z,42.29
2018-11-11T02:00:37.995Z,43.53
2018-11-11T02:00:38.593Z,43.43
2018-11-11T02:00:39.194Z,43.62
2018-11-11T02:00:39.794Z,43.62
2018-11-11T02:00:40.393Z,43.51
2018-11-11T02:00:40.992Z,43.72
2018-11-11T02:00:41.592Z,43.41
2018-11-11T02:00:42.192Z,43.62
2018-11-11T02:01:35.675Z,44.37
2018-11-11T02:01:36.246Z,44.38
2018-11-11T02:01:36.846Z,44.58
2018-11-11T02:01:37.451Z,44.67
2018-11-11T02:01:38.045Z,44.67
2018-11-11T02:01:38.645Z,44.77
2018-11-11T02:01:39.244Z,44.58
2018-11-11T02:01:39.845Z,44.87
2018-11-11T02:02:34.323Z,46.11
2018-11-11T02:02:34.921Z,46.11
2018-11-11T02:02:35.521Z,46.11
2018-11-11T02:02:36.120Z,46.11
2018-11-11T02:02:36.721Z,45.92
2018-11-11T02:02:37.319Z,46.01
2018-11-11T02:02:37.923Z,46.01
2018-11-11T02:02:38.524Z,45.92
2018-11-11T02:03:32.998Z,47.63
2018-11-11T02:03:33.598Z,47.44
2018-11-11T02:03:34.196Z,47.73
2018-11-11T02:03:34.796Z,47.44
2018-11-11T02:03:35.397Z,47.73
2018-11-11T02:03:35.995Z,47.54
2018-11-11T02:03:36.596Z,47.82
2018-11-11T02:03:37.197Z,47.92
2018-11-11T02:04:30.653Z,48.78
2018-11-11T02:04:31.249Z,48.88
2018-11-11T02:04:31.849Z,48.68
2018-11-11T02:04:32.448Z,48.97
2018-11-11T02:04:33.049Z,48.78
2018-11-11T02:04:33.649Z,48.88
2018-11-11T02:04:34.248Z,48.97
2018-11-11T02:04:34.848Z,48.88
2018-11-11T02:05:29.326Z,49.83
2018-11-11T02:05:29.925Z,49.73
2018-11-11T02:05:30.527Z,49.83
2018-11-11T02:05:31.123Z,49.83
2018-11-11T02:05:31.723Z,49.83
2018-11-11T02:05:32.322Z,49.83
2018-11-11T02:05:32.923Z,49.83
2018-11-11T02:05:33.523Z,49.83
2018-11-11T02:06:28.027Z,51.26
2018-11-11T02:06:28.600Z,51.54
2018-11-11T02:06:29.201Z,51.07
2018-11-11T02:06:29.799Z,51.17
2018-11-11T02:06:30.399Z,51.26
2018-11-11T02:06:31.001Z,51.35
2018-11-11T02:06:31.599Z,51.07
2018-11-11T02:06:32.203Z,51.07
2018-11-11T02:07:25.655Z,52.40
2018-11-11T02:07:26.252Z,52.50
2018-11-11T02:07:26.852Z,52.31
2018-11-11T02:07:27.452Z,52.31
2018-11-11T02:07:28.055Z,52.98
2018-11-11T02:07:28.652Z,52.40
2018-11-11T02:07:29.252Z,52.79
2018-11-11T02:07:29.852Z,52.88
2018-11-11T02:08:24.329Z,53.65
2018-11-11T02:08:24.927Z,54.03
2018-11-11T02:08:25.529Z,53.74
2018-11-11T02:08:26.127Z,54.03
2018-11-11T02:08:26.727Z,54.03
2018-11-11T02:08:27.327Z,54.03
2018-11-11T02:08:27.927Z,54.03
2018-11-11T02:08:28.526Z,54.13
2018-11-11T02:09:23.005Z,54.89
2018-11-11T02:09:23.603Z,54.70
2018-11-11T02:09:24.201Z,54.89
2018-11-11T02:09:24.803Z,54.89
2018-11-11T02:09:25.402Z,54.70
2018-11-11T02:09:26.003Z,54.60
2018-11-11T02:09:26.601Z,54.41
2018-11-11T02:09:27.203Z,54.79
2018-11-11T02:10:20.657Z,55.94
2018-11-11T02:10:21.255Z,55.94
2018-11-11T02:10:21.855Z,55.94
2018-11-11T02:10:22.455Z,55.46
2018-11-11T02:10:23.054Z,55.75
2018-11-11T02:10:23.654Z,55.94
2018-11-11T02:10:24.254Z,55.84
2018-11-11T02:10:24.855Z,55.94
2018-11-11T02:11:19.357Z,56.89
2018-11-11T02:11:19.930Z,57.09
2018-11-11T02:11:20.530Z,57.28
2018-11-11T02:11:21.128Z,57.09
2018-11-11T02:11:21.729Z,57.09
2018-11-11T02:11:22.330Z,57.09
2018-11-11T02:11:22.930Z,57.18
2018-11-11T02:11:23.528Z,57.09
2018-11-11T02:12:16.991Z,58.51
2018-11-11T02:12:17.583Z,58.42
2018-11-11T02:12:18.182Z,58.61
2018-11-11T02:12:18.784Z,58.51
2018-11-11T02:12:19.383Z,58.33
2018-11-11T02:12:19.982Z,58.42
2018-11-11T02:12:20.581Z,58.70
2018-11-11T02:12:21.182Z,58.70
2018-11-11T02:13:14.640Z,58.99
2018-11-11T02:13:15.234Z,59.38
2018-11-11T02:13:15.834Z,59.66
2018-11-11T02:13:16.435Z,59.66
2018-11-11T02:13:17.036Z,59.56
2018-11-11T02:13:17.633Z,59.56
2018-11-11T02:13:18.235Z,59.38
2018-11-11T02:13:18.833Z,59.66
2018-11-11T02:14:13.312Z,60.52
2018-11-11T02:14:13.909Z,60.71
2018-11-11T02:14:14.510Z,60.61
2018-11-11T02:14:15.108Z,60.33
2018-11-11T02:14:15.709Z,60.71
2018-11-11T02:14:16.308Z,60.71
2018-11-11T02:14:16.907Z,60.81
2018-11-11T02:14:17.509Z,60.61
2018-11-11T02:15:11.988Z,61.66
2018-11-11T02:15:12.585Z,61.95
2018-11-11T02:15:13.185Z,61.66
2018-11-11T02:15:13.786Z,61.47
2018-11-11T02:15:14.388Z,61.57
2018-11-11T02:15:14.984Z,61.29
2018-11-11T02:15:15.589Z,61.38
2018-11-11T02:15:16.186Z,61.57
2018-11-11T02:16:09.640Z,62.71
2018-11-11T02:16:10.237Z,62.91
2018-11-11T02:16:10.838Z,62.91
2018-11-11T02:16:11.437Z,62.52
2018-11-11T02:16:12.036Z,62.81
2018-11-11T02:16:12.637Z,63.00
2018-11-11T02:16:13.237Z,63.00
2018-11-11T02:16:13.837Z,63.00
2018-11-11T02:17:07.318Z,63.29
2018-11-11T02:17:07.890Z,63.96
2018-11-11T02:17:08.490Z,63.39
2018-11-11T02:17:09.089Z,63.48
2018-11-11T02:17:09.688Z,63.57
2018-11-11T02:17:10.290Z,64.15
2018-11-11T02:17:10.890Z,63.76
2018-11-11T02:17:11.488Z,64.15
2018-11-11T02:18:04.945Z,64.05
2018-11-11T02:18:05.542Z,64.25
2018-11-11T02:18:06.140Z,64.15
2018-11-11T02:18:06.740Z,64.05
2018-11-11T02:18:07.343Z,64.34
2018-11-11T02:18:07.940Z,64.15
2018-11-11T02:18:08.540Z,64.15
2018-11-11T02:18:09.140Z,64.15
2018-11-11T02:19:02.595Z,64.25
2018-11-11T02:19:03.194Z,64.34
2018-11-11T02:19:03.792Z,63.96
2018-11-11T02:19:04.393Z,64.15
2018-11-11T02:19:04.993Z,64.53
2018-11-11T02:19:05.598Z,64.43
2018-11-11T02:19:06.190Z,64.15
2018-11-11T02:19:06.790Z,64.05
2018-11-11T02:20:00.246Z,64.05
2018-11-11T02:20:00.844Z,64.05
2018-11-11T02:20:01.445Z,63.96
2018-11-11T02:20:02.045Z,63.96
2018-11-11T02:20:02.643Z,64.05
2018-11-11T02:20:03.244Z,63.96
2018-11-11T02:20:03.845Z,64.05
2018-11-11T02:20:04.444Z,64.25
2018-11-11T02:20:59.005Z,64.05
2018-11-11T02:20:59.523Z,64.05
2018-11-11T02:21:00.153Z,64.05
2018-11-11T02:21:00.725Z,64.15
2018-11-11T02:21:01.377Z,64.05
2018-11-11T02:21:01.934Z,64.05
2018-11-11T02:21:02.558Z,63.96
2018-11-11T02:21:03.162Z,63.96
2018-11-11T02:21:56.606Z,64.34
2018-11-11T02:21:57.171Z,64.43
2018-11-11T02:21:57.771Z,64.62
2018-11-11T02:21:58.375Z,64.62
2018-11-11T02:21:58.976Z,64.43
2018-11-11T02:21:59.569Z,64.72
2018-11-11T02:22:00.169Z,64.62
2018-11-11T02:22:00.770Z,64.72
2018-11-11T02:22:54.227Z,64.72
2018-11-11T02:22:54.823Z,65.01
2018-11-11T02:22:55.423Z,64.91
2018-11-11T02:22:56.030Z,64.91
2018-11-11T02:22:56.622Z,65.10
2018-11-11T02:22:57.222Z,65.10
2018-11-11T02:22:57.826Z,65.10
2018-11-11T02:22:58.421Z,65.30
2018-11-11T02:23:51.878Z,66.06
2018-11-11T02:23:52.475Z,66.25
2018-11-11T02:23:53.075Z,66.25
2018-11-11T02:23:53.675Z,66.25
2018-11-11T02:23:54.274Z,66.25
2018-11-11T02:23:54.882Z,66.63
2018-11-11T02:23:55.476Z,66.35
2018-11-11T02:23:56.076Z,66.63
2018-11-11T02:24:50.557Z,66.63
2018-11-11T02:24:51.149Z,66.63
2018-11-11T02:24:51.750Z,66.63
2018-11-11T02:24:52.347Z,66.72
2018-11-11T02:24:52.949Z,66.63
2018-11-11T02:24:53.548Z,66.72
2018-11-11T02:24:54.147Z,66.72
2018-11-11T02:24:54.748Z,66.72
2018-11-11T02:25:49.227Z,67.68
2018-11-11T02:25:49.825Z,67.77
2018-11-11T02:25:50.426Z,67.77
2018-11-11T02:25:51.025Z,67.87
2018-11-11T02:25:51.624Z,67.58
2018-11-11T02:25:52.225Z,67.58
2018-11-11T02:25:52.825Z,67.58
2018-11-11T02:25:53.425Z,67.58
2018-11-11T02:26:47.906Z,69.31
2018-11-11T02:26:48.501Z,69.31
2018-11-11T02:26:49.101Z,69.40
2018-11-11T02:26:49.701Z,68.73
2018-11-11T02:26:50.301Z,69.02
2018-11-11T02:26:50.900Z,68.82
2018-11-11T02:26:51.501Z,69.02
2018-11-11T02:26:52.101Z,69.31
2018-11-11T02:27:45.582Z,69.68
2018-11-11T02:27:46.154Z,69.68
2018-11-11T02:27:46.757Z,69.68
2018-11-11T02:27:47.355Z,69.68
2018-11-11T02:27:47.956Z,69.68
2018-11-11T02:27:48.553Z,69.68
2018-11-11T02:27:49.154Z,69.78
2018-11-11T02:27:49.753Z,69.78
2018-11-11T02:28:43.209Z,70.92
2018-11-11T02:28:43.807Z,70.73
2018-11-11T02:28:44.406Z,70.92
2018-11-11T02:28:45.006Z,70.73
2018-11-11T02:28:45.605Z,70.92
2018-11-11T02:28:46.206Z,71.02
2018-11-11T02:28:46.805Z,71.02
2018-11-11T02:28:47.404Z,71.12
2018-11-11T02:29:41.884Z,71.31
2018-11-11T02:29:42.485Z,71.12
2018-11-11T02:29:43.080Z,71.41
2018-11-11T02:29:43.682Z,71.41
2018-11-11T02:29:44.280Z,71.41
2018-11-11T02:29:44.881Z,71.31
2018-11-11T02:29:45.480Z,71.31
2018-11-11T02:29:46.080Z,71.21
2018-11-11T02:30:39.543Z,72.17
2018-11-11T02:30:40.135Z,71.69
2018-11-11T02:30:40.733Z,71.50
2018-11-11T02:30:41.333Z,71.88
2018-11-11T02:30:41.931Z,71.82
2018-11-11T02:30:42.532Z,71.50
2018-11-11T02:30:43.137Z,71.92
2018-11-11T02:30:43.732Z,71.98
2018-11-11T02:31:37.188Z,72.39
2018-11-11T02:31:37.785Z,72.45
2018-11-11T02:31:38.386Z,72.26
2018-11-11T02:31:38.985Z,72.30
2018-11-11T02:31:39.584Z,72.07
2018-11-11T02:31:40.186Z,72.49
2018-11-11T02:31:40.786Z,72.11
2018-11-11T02:31:41.385Z,72.20
2018-11-11T02:32:35.897Z,73.32
2018-11-11T02:32:36.460Z,72.97
2018-11-11T02:32:37.065Z,73.35
2018-11-11T02:32:37.660Z,72.97
2018-11-11T02:32:38.260Z,73.44
2018-11-11T02:32:38.859Z,73.63
2018-11-11T02:32:39.458Z,73.63
2018-11-11T02:32:40.060Z,72.87
2018-11-11T02:33:34.537Z,74.78
2018-11-11T02:33:35.135Z,74.69
2018-11-11T02:33:35.738Z,74.69
2018-11-11T02:33:36.336Z,74.59
2018-11-11T02:33:36.935Z,74.59
2018-11-11T02:33:37.534Z,74.49
2018-11-11T02:33:38.135Z,74.30
2018-11-11T02:33:38.735Z,74.30
2018-11-11T02:34:33.214Z,75.26
2018-11-11T02:34:33.811Z,75.26
2018-11-11T02:34:34.411Z,75.07
2018-11-11T02:34:35.014Z,75.26
2018-11-11T02:34:35.611Z,75.26
2018-11-11T02:34:36.210Z,75.07
2018-11-11T02:34:36.811Z,75.35
2018-11-11T02:34:37.412Z,75.07
2018-11-11T02:35:31.892Z,75.83
2018-11-11T02:35:32.489Z,75.83
2018-11-11T02:35:33.087Z,75.83
2018-11-11T02:35:33.686Z,76.03
2018-11-11T02:35:34.289Z,75.83
2018-11-11T02:35:34.885Z,76.03
2018-11-11T02:35:35.484Z,76.12
2018-11-11T02:35:36.084Z,75.83
2018-11-11T02:36:29.541Z,76.21
2018-11-11T02:36:30.150Z,76.21
2018-11-11T02:36:30.737Z,76.21
2018-11-11T02:36:31.338Z,76.31
2018-11-11T02:36:31.938Z,76.12
2018-11-11T02:36:32.538Z,76.31
2018-11-11T02:36:33.145Z,76.21
2018-11-11T02:36:33.740Z,76.31
2018-11-11T02:37:28.238Z,76.03
2018-11-11T02:37:28.893Z,76.03
2018-11-11T02:37:29.504Z,76.12
2018-11-11T02:37:30.079Z,76.12
2018-11-11T02:37:30.676Z,76.12
2018-11-11T02:37:31.275Z,76.21
2018-11-11T02:37:31.878Z,76.12
2018-11-11T02:37:32.437Z,76.21
2018-11-11T02:38:26.920Z,76.69
2018-11-11T02:38:27.502Z,76.60
2018-11-11T02:38:28.093Z,76.69
2018-11-11T02:38:28.694Z,76.79
2018-11-11T02:38:29.291Z,76.79
2018-11-11T02:38:29.890Z,76.79
2018-11-11T02:38:30.492Z,76.69
2018-11-11T02:38:31.090Z,76.69
2018-11-11T02:39:24.544Z,77.84
2018-11-11T02:39:25.142Z,77.55
2018-11-11T02:39:25.744Z,77.65
2018-11-11T02:39:26.346Z,77.74
2018-11-11T02:39:26.943Z,77.84
2018-11-11T02:39:27.543Z,77.74
2018-11-11T02:39:28.142Z,77.94
2018-11-11T02:39:28.743Z,77.94
2018-11-11T02:40:23.221Z,78.03
2018-11-11T02:40:23.823Z,78.22
2018-11-11T02:40:24.419Z,78.22
2018-11-11T02:40:25.052Z,78.31
2018-11-11T02:40:25.617Z,78.70
2018-11-11T02:40:26.217Z,78.31
2018-11-11T02:40:26.816Z,78.41
2018-11-11T02:40:27.416Z,78.51
2018-11-11T02:41:21.896Z,79.08
2018-11-11T02:41:22.492Z,79.27
2018-11-11T02:41:23.093Z,79.56
2018-11-11T02:41:23.694Z,79.56
2018-11-11T02:41:24.293Z,79.56
2018-11-11T02:41:24.897Z,79.36
2018-11-11T02:41:25.492Z,79.56
2018-11-11T02:41:26.093Z,79.56
2018-11-11T02:42:20.573Z,79.85
2018-11-11T02:42:21.171Z,79.85
2018-11-11T02:42:21.770Z,79.85
2018-11-11T02:42:22.369Z,79.85
2018-11-11T02:42:22.972Z,80.04
2018-11-11T02:42:23.570Z,79.94
2018-11-11T02:42:24.169Z,80.13
2018-11-11T02:42:24.768Z,80.13
2018-11-11T02:43:18.250Z,81.37
2018-11-11T02:43:18.823Z,81.47
2018-11-11T02:43:19.420Z,81.47
2018-11-11T02:43:20.023Z,81.56
2018-11-11T02:43:20.622Z,81.27
2018-11-11T02:43:21.221Z,81.37
2018-11-11T02:43:21.824Z,81.18
2018-11-11T02:43:22.425Z,81.27
2018-11-11T02:44:18.989Z,81.37
2018-11-11T02:44:19.493Z,81.47
2018-11-11T02:44:20.092Z,81.18
2018-11-11T02:44:20.691Z,81.56
2018-11-11T02:44:21.291Z,81.27
2018-11-11T02:45:14.758Z,81.47
2018-11-11T02:45:15.353Z,81.09
2018-11-11T02:45:15.957Z,81.09
2018-11-11T02:45:16.552Z,81.47
2018-11-11T02:45:17.155Z,81.09
2018-11-11T02:45:17.753Z,81.18
2018-11-11T02:45:18.354Z,81.18
2018-11-11T02:45:19.042Z,81.47
2018-11-11T02:46:12.409Z,81.66
2018-11-11T02:46:13.006Z,81.85
2018-11-11T02:46:13.605Z,81.47
2018-11-11T02:46:14.204Z,81.56
2018-11-11T02:46:14.805Z,81.66
2018-11-11T02:46:15.404Z,81.76
2018-11-11T02:46:16.004Z,81.76
2018-11-11T02:46:16.604Z,81.37
2018-11-11T02:47:11.083Z,82.14
2018-11-11T02:47:11.681Z,81.85
2018-11-11T02:47:12.285Z,81.95
2018-11-11T02:47:12.881Z,81.95
2018-11-11T02:47:13.480Z,81.95
2018-11-11T02:47:14.079Z,82.04
2018-11-11T02:47:14.680Z,82.04
2018-11-11T02:47:15.279Z,82.14
2018-11-11T02:48:08.765Z,82.42
2018-11-11T02:48:09.332Z,82.42
2018-11-11T02:48:09.933Z,82.23
2018-11-11T02:48:10.532Z,81.56
2018-11-11T02:48:11.131Z,82.32
2018-11-11T02:48:11.733Z,82.42
2018-11-11T02:48:12.332Z,82.32
2018-11-11T02:48:12.931Z,82.42
2018-11-11T02:49:07.410Z,82.14
2018-11-11T02:49:08.007Z,82.04
2018-11-11T02:49:08.606Z,82.14
2018-11-11T02:49:09.207Z,82.14
2018-11-11T02:49:09.807Z,82.04
2018-11-11T02:49:10.406Z,82.14
2018-11-11T02:49:11.007Z,82.14
2018-11-11T02:49:11.606Z,82.04
2018-11-11T02:50:06.087Z,82.42
2018-11-11T02:50:06.683Z,82.52
2018-11-11T02:50:07.294Z,82.32
2018-11-11T02:50:07.947Z,82.32
2018-11-11T02:50:08.482Z,82.32
2018-11-11T02:50:09.083Z,82.32
2018-11-11T02:50:09.684Z,82.32
2018-11-11T02:50:10.285Z,82.32
2018-11-11T02:51:03.738Z,82.52
2018-11-11T02:51:04.337Z,82.61
2018-11-11T02:51:04.937Z,82.52
2018-11-11T02:51:05.536Z,82.81
2018-11-11T02:51:06.137Z,82.52
2018-11-11T02:51:06.736Z,82.81
2018-11-11T02:51:07.335Z,82.52
2018-11-11T02:51:07.936Z,82.52
2018-11-11T02:52:02.415Z,83.28
2018-11-11T02:52:03.011Z,83.28
2018-11-11T02:52:03.610Z,83.28
2018-11-11T02:52:04.210Z,83.28
2018-11-11T02:52:04.810Z,83.28
2018-11-11T02:52:05.409Z,83.28
2018-11-11T02:52:06.010Z,83.28
2018-11-11T02:52:06.610Z,83.09
2018-11-11T02:53:00.090Z,83.95
2018-11-11T02:53:00.666Z,83.95
2018-11-11T02:53:01.263Z,83.95
2018-11-11T02:53:01.896Z,84.14
2018-11-11T02:53:02.463Z,84.05
2018-11-11T02:53:03.062Z,83.95
2018-11-11T02:53:03.663Z,83.95
2018-11-11T02:53:04.263Z,83.95
2018-11-11T02:53:58.743Z,83.95
2018-11-11T02:53:59.339Z,83.86
2018-11-11T02:53:59.939Z,83.86
2018-11-11T02:54:00.538Z,83.95
2018-11-11T02:54:01.139Z,84.05
2018-11-11T02:54:01.738Z,83.95
2018-11-11T02:54:02.358Z,84.05
2018-11-11T02:54:02.940Z,84.05
2018-11-11T02:54:57.417Z,84.23
2018-11-11T02:54:58.013Z,83.76
2018-11-11T02:54:58.616Z,84.14
2018-11-11T02:54:59.213Z,83.86
2018-11-11T02:54:59.814Z,84.14
2018-11-11T02:55:00.417Z,83.95
2018-11-11T02:55:01.015Z,84.05
2018-11-11T02:55:01.614Z,84.33
2018-11-11T02:55:56.092Z,84.52
2018-11-11T02:55:56.690Z,84.52
2018-11-11T02:55:57.289Z,84.52
2018-11-11T02:55:57.888Z,84.62
2018-11-11T02:55:58.489Z,84.72
2018-11-11T02:55:59.089Z,84.62
2018-11-11T02:55:59.689Z,84.62
2018-11-11T02:56:00.289Z,84.72
2018-11-11T02:56:53.744Z,84.72
2018-11-11T02:56:54.342Z,84.91
2018-11-11T02:56:54.944Z,84.72
2018-11-11T02:56:55.543Z,84.62
2018-11-11T02:56:56.142Z,84.72
2018-11-11T02:56:56.741Z,84.72
2018-11-11T02:56:57.342Z,84.81
2018-11-11T02:56:57.942Z,84.72
2018-11-11T02:57:51.428Z,85.48
2018-11-11T02:57:51.993Z,85.48
2018-11-11T02:57:52.594Z,85.58
2018-11-11T02:57:53.193Z,85.58
2018-11-11T02:57:53.794Z,85.19
2018-11-11T02:57:54.398Z,85.58
2018-11-11T02:57:54.993Z,85.58
2018-11-11T02:57:55.591Z,85.48
2018-11-11T02:58:50.072Z,85.86
2018-11-11T02:58:50.668Z,86.05
2018-11-11T02:58:51.268Z,86.05
2018-11-11T02:58:51.868Z,86.05
2018-11-11T02:58:52.469Z,86.82
2018-11-11T02:58:53.069Z,86.82
2018-11-11T02:58:53.669Z,86.82
2018-11-11T02:58:54.269Z,86.72
2018-11-11T02:59:48.748Z,87.29
2018-11-11T02:59:49.348Z,87.29
2018-11-11T02:59:49.945Z,87.29
2018-11-11T02:59:50.545Z,87.29
2018-11-11T02:59:51.145Z,87.48
2018-11-11T02:59:51.746Z,87.39
2018-11-11T02:59:52.344Z,87.29
2018-11-11T02:59:52.944Z,87.39
2018-11-11T03:00:46.400Z,88.15
2018-11-11T03:00:46.998Z,87.96
2018-11-11T03:00:47.599Z,87.77
2018-11-11T03:00:48.198Z,88.15
2018-11-11T03:00:48.798Z,87.58
2018-11-11T03:00:49.427Z,87.68
2018-11-11T03:00:49.997Z,88.15
2018-11-11T03:00:50.598Z,88.15
2018-11-11T03:01:45.075Z,88.44
2018-11-11T03:01:45.672Z,88.44
2018-11-11T03:01:46.272Z,88.54
2018-11-11T03:01:46.873Z,88.63
2018-11-11T03:01:47.478Z,88.25
2018-11-11T03:01:48.109Z,88.63
2018-11-11T03:01:48.673Z,88.63
2018-11-11T03:01:49.272Z,88.34
2018-11-11T03:02:42.729Z,88.34
2018-11-11T03:02:43.325Z,88.44
2018-11-11T03:02:43.925Z,88.92
2018-11-11T03:02:44.524Z,88.54
2018-11-11T03:02:45.124Z,88.54
2018-11-11T03:02:45.727Z,88.63
2018-11-11T03:02:46.323Z,88.54
2018-11-11T03:02:46.924Z,88.44